createdAt,value
2023-02-15T00:00:30.982Z,59.75
2023-02-15T00:02:57.789Z,59.76
2023-02-15T00:05:27.803Z,59.70
2023-02-15T00:07:59.793Z,59.69
2023-02-15T00:10:26.690Z,59.82
2023-02-15T00:12:55.928Z,59.88
2023-02-15T00:15:22.757Z,59.82
2023-02-15T00:17:49.542Z,59.68
2023-02-15T00:20:16.396Z,59.61
2023-02-15T00:22:45.721Z,60.93
2023-02-15T00:25:12.592Z,60.81
2023-02-15T00:27:42.222Z,60.66
2023-02-15T00:30:09.112Z,61.29
2023-02-15T00:32:38.117Z,60.77
2023-02-15T00:35:08.050Z,60.67
2023-02-15T00:37:34.986Z,60.69
2023-02-15T00:40:06.721Z,60.53
2023-02-15T00:42:33.536Z,60.96
2023-02-15T00:45:00.517Z,60.37
2023-02-15T00:47:42.334Z,60.15
2023-02-15T00:50:09.671Z,59.93
2023-02-15T00:52:40.537Z,59.92
2023-02-15T00:55:07.948Z,60.22
2023-02-15T00:57:34.771Z,60.43
2023-02-15T01:00:01.502Z,60.72
2023-02-15T01:02:32.269Z,61.11
2023-02-15T01:05:04.109Z,61.25
2023-02-15T01:07:35.609Z,61.44
2023-02-15T01:10:02.537Z,61.88
2023-02-15T01:12:29.406Z,61.36
2023-02-15T01:14:56.254Z,61.19
2023-02-15T01:17:30.572Z,61.55
2023-02-15T01:20:00.296Z,61.14
2023-02-15T01:22:27.106Z,61.12
2023-02-15T01:24:55.103Z,61.30
2023-02-15T01:27:22.541Z,60.99
2023-02-15T01:29:50.276Z,60.94
2023-02-15T01:32:19.501Z,60.93
2023-02-15T01:34:58.915Z,61.20
2023-02-15T01:37:34.876Z,61.23
2023-02-15T01:40:11.325Z,60.78
2023-02-15T01:42:40.691Z,60.82
2023-02-15T01:45:29.833Z,60.91
2023-02-15T01:48:05.152Z,60.45
2023-02-15T01:50:37.421Z,60.62
2023-02-15T01:53:29.341Z,60.30
2023-02-15T01:56:16.385Z,60.29
2023-02-15T01:58:51.090Z,60.33
2023-02-15T02:01:21.539Z,60.18
2023-02-15T02:04:13.559Z,60.68
2023-02-15T02:06:51.039Z,60.52
2023-02-15T02:09:23.440Z,60.60
2023-02-15T02:11:55.610Z,60.92
2023-02-15T02:14:31.074Z,60.62
2023-02-15T02:17:28.088Z,61.34
2023-02-15T02:20:15.586Z,61.82
2023-02-15T02:22:52.973Z,61.91
2023-02-15T02:25:46.409Z,62.70
2023-02-15T02:28:41.262Z,62.76
2023-02-15T02:31:11.512Z,62.41
2023-02-15T02:33:51.264Z,62.07
2023-02-15T02:36:52.515Z,62.48
2023-02-15T02:39:50.654Z,62.53
2023-02-15T02:42:50.559Z,62.14
2023-02-15T02:45:41.044Z,62.28
2023-02-15T02:48:15.552Z,61.93
2023-02-15T02:50:50.674Z,62.23
2023-02-15T02:53:19.562Z,62.08
2023-02-15T02:55:54.553Z,62.88
2023-02-15T02:58:33.008Z,63.25
2023-02-15T03:01:25.947Z,63.72
2023-02-15T03:04:17.345Z,63.13
2023-02-15T03:07:11.660Z,63.92
2023-02-15T03:09:51.171Z,62.84
2023-02-15T03:12:28.114Z,63.21
2023-02-15T03:18:43.502Z,63.47
2023-02-15T03:21:23.361Z,63.40
2023-02-15T03:24:07.387Z,62.82
2023-02-15T03:26:38.759Z,62.88
2023-02-15T03:29:09.377Z,63.35
2023-02-15T03:31:42.958Z,62.73
2023-02-15T03:34:22.086Z,62.74
2023-02-15T03:36:49.343Z,62.91
2023-02-15T03:39:32.659Z,62.96
2023-02-15T03:42:29.468Z,62.80
2023-02-15T03:45:14.106Z,62.61
2023-02-15T03:47:46.574Z,62.10
2023-02-15T03:50:44.813Z,62.48
2023-02-15T03:53:15.685Z,62.54
2023-02-15T03:55:43.148Z,62.52
2023-02-15T03:58:36.972Z,62.40
2023-02-15T04:02:04.686Z,62.58
2023-02-15T04:04:40.142Z,62.69
2023-02-15T04:07:28.432Z,62.58
2023-02-15T04:10:14.473Z,62.69
2023-02-15T04:12:41.884Z,62.48
2023-02-15T04:15:32.487Z,62.86
2023-02-15T04:18:03.480Z,62.50
2023-02-15T04:20:56.638Z,62.48
2023-02-15T04:23:48.105Z,62.62
2023-02-15T04:26:18.535Z,62.96
2023-02-15T04:28:45.751Z,63.06
2023-02-15T04:31:22.859Z,62.57
2023-02-15T04:34:12.126Z,62.51
2023-02-15T04:36:40.065Z,62.41
2023-02-15T04:39:18.108Z,62.54
2023-02-15T04:41:49.018Z,62.25
2023-02-15T04:44:19.679Z,62.72
2023-02-15T04:46:47.048Z,63.03
2023-02-15T04:49:19.966Z,63.06
2023-02-15T04:51:54.653Z,63.09
2023-02-15T04:54:24.568Z,63.81
2023-02-15T04:56:52.464Z,63.59
2023-02-15T04:59:27.066Z,63.81
2023-02-15T05:01:54.217Z,63.49
2023-02-15T05:04:23.353Z,63.30
2023-02-15T05:06:53.326Z,63.24
2023-02-15T05:09:27.638Z,62.70
2023-02-15T05:12:07.288Z,62.71
2023-02-15T05:14:34.635Z,61.84
2023-02-15T05:17:04.560Z,62.57
2023-02-15T05:19:32.529Z,62.32
2023-02-15T05:22:04.843Z,62.62
2023-02-15T05:24:53.287Z,62.84
2023-02-15T05:27:38.725Z,62.11
2023-02-15T05:30:06.524Z,62.53
2023-02-15T05:32:33.529Z,62.67
2023-02-15T05:35:05.667Z,62.41
2023-02-15T05:37:32.470Z,63.00
2023-02-15T05:40:01.828Z,63.07
2023-02-15T05:42:30.963Z,63.74
2023-02-15T05:44:57.812Z,63.85
2023-02-15T05:47:24.656Z,64.08
2023-02-15T05:49:51.584Z,64.04
2023-02-15T05:52:20.716Z,64.17
2023-02-15T05:54:54.219Z,64.03
2023-02-15T05:57:21.158Z,63.91
2023-02-15T05:59:47.990Z,63.81
2023-02-15T06:02:14.929Z,63.58
2023-02-15T06:04:42.019Z,63.71
2023-02-15T06:07:17.407Z,63.58
2023-02-15T06:09:44.205Z,63.14
2023-02-15T06:12:11.031Z,63.19
2023-02-15T06:14:40.517Z,62.61
2023-02-15T06:17:07.563Z,62.74
2023-02-15T06:19:36.480Z,62.63
2023-02-15T06:22:07.427Z,62.53
2023-02-15T06:24:34.267Z,62.59
2023-02-15T06:27:09.908Z,62.63
2023-02-15T06:29:39.530Z,62.66
2023-02-15T06:32:09.195Z,62.31
2023-02-15T06:34:44.472Z,62.25
2023-02-15T06:37:22.086Z,62.67
2023-02-15T06:39:52.281Z,62.83
2023-02-15T06:42:19.337Z,62.83
2023-02-15T06:44:56.947Z,62.72
2023-02-15T06:47:29.207Z,62.67
2023-02-15T06:49:56.305Z,62.81
2023-02-15T06:52:23.408Z,62.64
2023-02-15T06:54:58.343Z,63.25
2023-02-15T06:57:28.667Z,63.34
2023-02-15T07:00:05.974Z,63.12
2023-02-15T07:02:38.144Z,62.86
2023-02-15T07:05:18.741Z,62.48
2023-02-15T07:07:58.571Z,63.00
2023-02-15T07:10:28.879Z,62.62
2023-02-15T07:13:09.308Z,62.93
2023-02-15T07:15:39.318Z,63.25
2023-02-15T07:18:10.252Z,62.88
2023-02-15T07:20:42.546Z,62.69
2023-02-15T07:23:31.799Z,62.70
2023-02-15T07:26:08.283Z,62.56
2023-02-15T07:28:43.912Z,62.61
2023-02-15T07:31:21.851Z,62.23
2023-02-15T07:34:01.059Z,62.80
2023-02-15T07:36:41.184Z,62.30
2023-02-15T07:39:11.325Z,61.62
2023-02-15T07:46:23.294Z,61.57
2023-02-15T07:48:52.801Z,61.19
2023-02-15T07:51:23.732Z,61.34
2023-02-15T07:53:52.613Z,61.28
2023-02-15T07:56:19.998Z,61.12
2023-02-15T07:58:56.651Z,60.76
2023-02-15T08:01:24.697Z,60.60
2023-02-15T08:03:52.041Z,60.42
2023-02-15T08:06:21.753Z,60.35
2023-02-15T08:08:52.163Z,60.39
2023-02-15T08:11:26.892Z,60.15
2023-02-15T08:14:04.794Z,59.92
2023-02-15T08:16:51.713Z,59.62
2023-02-15T08:19:22.643Z,59.86
2023-02-15T08:22:05.048Z,59.28
2023-02-15T08:24:39.836Z,59.04
2023-02-15T08:27:07.885Z,58.85
2023-02-15T08:29:35.989Z,58.69
2023-02-15T08:32:13.444Z,58.09
2023-02-15T08:34:43.700Z,57.86
2023-02-15T08:37:13.105Z,58.01
2023-02-15T08:39:43.888Z,57.41
2023-02-15T08:42:11.021Z,57.66
2023-02-15T08:44:37.812Z,58.03
2023-02-15T08:47:05.152Z,57.88
2023-02-15T08:49:34.999Z,57.77
2023-02-15T08:52:01.881Z,57.62
2023-02-15T08:54:28.684Z,57.56
2023-02-15T08:56:55.587Z,57.33
2023-02-15T08:59:24.244Z,56.75
2023-02-15T09:01:52.978Z,56.94
2023-02-15T09:04:20.567Z,55.97
2023-02-15T09:06:51.672Z,56.39
2023-02-15T09:09:19.782Z,55.94
2023-02-15T09:11:59.542Z,56.66
2023-02-15T09:14:30.206Z,56.66
2023-02-15T09:16:57.239Z,56.26
2023-02-15T09:19:24.635Z,55.58
2023-02-15T09:21:56.496Z,55.49
2023-02-15T09:24:28.139Z,55.69
2023-02-15T09:26:55.038Z,54.89
2023-02-15T09:29:26.624Z,55.35
2023-02-15T09:31:55.731Z,54.04
2023-02-15T09:34:23.838Z,53.68
2023-02-15T09:36:52.068Z,53.80
2023-02-15T09:39:20.730Z,53.08
2023-02-15T09:41:57.761Z,52.97
2023-02-15T09:45:01.769Z,53.75
2023-02-15T09:48:11.573Z,51.98
2023-02-15T09:50:44.617Z,53.14
2023-02-15T09:53:48.317Z,51.15
2023-02-15T09:56:33.504Z,52.35
2023-02-15T09:59:20.086Z,52.91
2023-02-15T10:02:29.317Z,52.25
2023-02-15T10:05:05.193Z,52.23
2023-02-15T10:08:12.861Z,51.08
2023-02-15T10:10:44.138Z,50.26
2023-02-15T10:13:44.301Z,50.77
2023-02-15T10:16:37.218Z,50.34
2023-02-15T10:19:50.823Z,48.71
2023-02-15T10:22:31.260Z,49.19
2023-02-15T10:25:26.640Z,48.45
2023-02-15T10:28:09.519Z,49.97
2023-02-15T10:31:29.344Z,48.47
2023-02-15T10:34:26.457Z,47.34
2023-02-15T10:37:12.181Z,47.83
2023-02-15T10:39:53.629Z,47.73
2023-02-15T10:42:37.701Z,48.22
2023-02-15T10:45:22.880Z,46.76
2023-02-15T10:51:05.996Z,45.95
2023-02-15T10:53:38.095Z,46.54
2023-02-15T10:56:44.216Z,44.25
2023-02-15T10:59:33.206Z,45.44
2023-02-15T11:02:25.223Z,43.10
2023-02-15T11:05:12.999Z,42.04
2023-02-15T11:07:42.884Z,43.92
2023-02-15T11:10:32.340Z,41.62
2023-02-15T11:13:20.588Z,41.15
2023-02-15T11:16:12.119Z,43.27
2023-02-15T11:18:49.830Z,42.26
2023-02-15T11:21:46.425Z,42.59
2023-02-15T11:24:19.561Z,42.64
2023-02-15T11:26:58.996Z,41.41
2023-02-15T11:29:43.096Z,40.41
2023-02-15T11:32:46.450Z,39.99
2023-02-15T11:35:16.341Z,38.94
2023-02-15T11:37:56.107Z,40.88
2023-02-15T11:40:35.766Z,38.35
2023-02-15T11:43:13.072Z,37.89
2023-02-15T11:45:42.903Z,39.13
2023-02-15T11:48:14.345Z,39.10
2023-02-15T11:50:44.181Z,39.55
2023-02-15T11:53:15.604Z,38.29
2023-02-15T11:55:47.072Z,39.29
2023-02-15T11:58:31.461Z,39.13
2023-02-15T12:01:07.650Z,36.82
2023-02-15T12:03:45.934Z,37.55
2023-02-15T12:06:25.156Z,37.49
2023-02-15T12:08:53.765Z,35.98
2023-02-15T12:11:30.767Z,37.65
2023-02-15T12:14:03.470Z,37.36
2023-02-15T12:16:36.131Z,36.72
2023-02-15T12:19:07.802Z,34.57
2023-02-15T12:21:43.386Z,36.89
2023-02-15T12:24:45.812Z,34.92
2023-02-15T12:27:15.612Z,33.76
2023-02-15T12:29:48.651Z,34.94
2023-02-15T12:32:26.385Z,34.11
2023-02-15T12:35:15.523Z,35.43
2023-02-15T12:37:54.145Z,32.74
2023-02-15T12:40:31.326Z,32.31
2023-02-15T12:42:59.259Z,33.71
2023-02-15T12:45:43.897Z,32.88
2023-02-15T12:48:13.947Z,34.64
2023-02-15T12:50:43.302Z,33.92
2023-02-15T12:53:35.320Z,32.43
2023-02-15T12:56:07.443Z,31.77
2023-02-15T12:58:41.589Z,32.36
2023-02-15T13:01:26.816Z,31.09
2023-02-15T13:04:29.178Z,32.65
2023-02-15T13:07:03.158Z,32.38
2023-02-15T13:09:35.420Z,31.79
2023-02-15T13:12:19.990Z,31.86
2023-02-15T13:14:52.620Z,31.55
2023-02-15T13:17:25.815Z,33.16
2023-02-15T13:19:55.503Z,33.09
2023-02-15T13:22:43.920Z,32.36
2023-02-15T13:25:17.417Z,32.01
2023-02-15T13:27:55.762Z,31.22
2023-02-15T13:30:32.313Z,32.44
2023-02-15T13:33:06.968Z,32.04
2023-02-15T13:36:16.090Z,30.98
2023-02-15T13:39:00.524Z,32.32
2023-02-15T13:41:52.652Z,31.67
2023-02-15T13:44:42.852Z,31.94
2023-02-15T13:47:23.059Z,31.67
2023-02-15T13:50:14.051Z,31.52
2023-02-15T13:52:52.252Z,32.53
2023-02-15T13:55:20.376Z,32.44
2023-02-15T13:58:21.347Z,31.14
2023-02-15T14:00:51.146Z,31.90
2023-02-15T14:03:30.908Z,30.33
2023-02-15T14:06:16.897Z,30.87
2023-02-15T14:09:01.721Z,30.75
2023-02-15T14:11:41.398Z,31.04
2023-02-15T14:14:43.719Z,32.52
2023-02-15T14:17:28.949Z,32.22
2023-02-15T14:19:59.670Z,31.35
2023-02-15T14:22:56.739Z,30.99
2023-02-15T14:25:30.575Z,30.48
2023-02-15T14:28:05.434Z,30.46
2023-02-15T14:30:37.863Z,32.23
2023-02-15T14:33:07.783Z,31.72
2023-02-15T14:35:38.211Z,32.09
2023-02-15T14:38:22.792Z,32.44
2023-02-15T14:41:24.893Z,31.84
2023-02-15T14:44:10.035Z,32.41
2023-02-15T14:46:54.532Z,32.98
2023-02-15T14:49:23.900Z,33.23
2023-02-15T14:51:51.206Z,32.66
2023-02-15T14:54:24.007Z,32.13
2023-02-15T14:57:03.244Z,33.38
2023-02-15T14:59:39.757Z,35.13
2023-02-15T15:02:12.099Z,36.83
2023-02-15T15:05:07.530Z,38.42
2023-02-15T15:07:51.087Z,39.05
2023-02-15T15:10:21.699Z,40.59
2023-02-15T15:12:54.169Z,41.43
2023-02-15T15:15:33.057Z,42.17
2023-02-15T15:18:00.838Z,42.20
2023-02-15T15:20:28.405Z,42.23
2023-02-15T15:23:20.740Z,43.42
2023-02-15T15:26:00.711Z,43.07
2023-02-15T15:28:34.053Z,43.65
2023-02-15T15:31:30.426Z,44.90
2023-02-15T15:34:32.883Z,45.15
2023-02-15T15:37:09.419Z,45.32
2023-02-15T15:40:03.823Z,45.70
2023-02-15T15:42:55.643Z,45.61
2023-02-15T15:45:41.435Z,44.81
2023-02-15T15:48:34.602Z,45.28
2023-02-15T15:51:18.405Z,45.46
2023-02-15T15:53:51.471Z,45.15
2023-02-15T15:56:29.257Z,46.51
2023-02-15T15:59:01.109Z,46.51
2023-02-15T16:01:35.402Z,45.90
2023-02-15T16:04:02.202Z,46.08
2023-02-15T16:06:39.390Z,47.17
2023-02-15T16:09:16.625Z,47.61
2023-02-15T16:11:44.164Z,48.61
2023-02-15T16:14:18.699Z,48.08
2023-02-15T16:16:55.192Z,48.57
2023-02-15T16:19:29.755Z,47.72
2023-02-15T16:21:59.327Z,49.59
2023-02-15T16:24:55.993Z,48.70
2023-02-15T16:27:47.143Z,49.20
2023-02-15T16:30:21.977Z,49.07
2023-02-15T16:33:16.257Z,49.80
2023-02-15T16:35:55.903Z,49.42
2023-02-15T16:38:43.346Z,49.60
2023-02-15T16:41:17.277Z,50.45
2023-02-15T16:43:48.920Z,49.96
2023-02-15T16:46:25.822Z,50.76
2023-02-15T16:48:59.765Z,50.64
2023-02-15T16:51:28.985Z,50.40
2023-02-15T16:53:57.268Z,51.99
2023-02-15T16:56:28.985Z,52.40
2023-02-15T16:58:58.805Z,52.61
2023-02-15T17:01:31.547Z,52.51
2023-02-15T17:04:23.423Z,52.37
2023-02-15T17:07:08.450Z,52.24
2023-02-15T17:09:38.308Z,52.79
2023-02-15T17:12:11.245Z,52.50
2023-02-15T17:14:43.456Z,52.48
2023-02-15T17:17:17.077Z,53.49
2023-02-15T17:19:50.644Z,53.15
2023-02-15T17:22:26.200Z,54.16
2023-02-15T17:25:01.844Z,52.89
2023-02-15T17:27:34.109Z,53.74
2023-02-15T17:30:14.292Z,53.11
2023-02-15T17:32:56.952Z,53.63
2023-02-15T17:35:28.016Z,52.82
2023-02-15T17:38:19.769Z,53.02
2023-02-15T17:40:46.703Z,52.67
2023-02-15T17:43:15.892Z,52.59
2023-02-15T17:45:53.183Z,52.38
2023-02-15T17:48:26.857Z,52.85
2023-02-15T17:50:55.854Z,52.36
2023-02-15T17:53:22.763Z,52.31
2023-02-15T17:55:51.934Z,53.44
2023-02-15T17:58:19.996Z,53.35
2023-02-15T18:01:11.657Z,53.06
2023-02-15T18:04:02.797Z,52.95
2023-02-15T18:06:48.707Z,52.95
2023-02-15T18:09:36.118Z,52.95
2023-02-15T18:12:21.083Z,52.60
2023-02-15T18:14:51.353Z,52.88
2023-02-15T18:17:18.247Z,52.74
2023-02-15T18:19:46.182Z,53.01
2023-02-15T18:22:19.756Z,52.78
2023-02-15T18:24:49.498Z,53.32
2023-02-15T18:27:16.630Z,53.32
2023-02-15T18:29:45.954Z,52.94
2023-02-15T18:32:22.783Z,53.79
2023-02-15T18:34:50.014Z,53.40
2023-02-15T18:37:23.520Z,53.16
2023-02-15T18:39:54.384Z,53.26
2023-02-15T18:42:29.293Z,53.28
2023-02-15T18:44:58.208Z,53.30
2023-02-15T18:47:25.427Z,53.47
2023-02-15T18:49:54.233Z,53.63
2023-02-15T18:52:26.725Z,53.43
2023-02-15T18:55:02.916Z,53.19
2023-02-15T18:57:32.989Z,53.27
2023-02-15T19:00:03.189Z,53.35
2023-02-15T19:02:32.352Z,53.51
2023-02-15T19:04:59.211Z,53.63
2023-02-15T19:07:29.903Z,53.36
2023-02-15T19:10:00.573Z,53.54
2023-02-15T19:15:26.699Z,53.51
2023-02-15T19:17:59.578Z,53.87
2023-02-15T19:20:30.125Z,54.08
2023-02-15T19:22:58.287Z,54.00
2023-02-15T19:25:32.606Z,54.12
2023-02-15T19:28:34.529Z,54.15
2023-02-15T19:31:06.579Z,54.54
2023-02-15T19:33:34.843Z,54.49
2023-02-15T19:36:02.247Z,54.53
2023-02-15T19:38:32.795Z,54.81
2023-02-15T19:41:06.973Z,55.20
2023-02-15T19:43:34.062Z,55.31
2023-02-15T19:46:01.224Z,56.05
2023-02-15T19:48:28.445Z,56.17
2023-02-15T19:51:04.235Z,57.18
2023-02-15T19:53:33.293Z,57.44
2023-02-15T19:56:05.598Z,58.06
2023-02-15T19:58:33.702Z,59.08
2023-02-15T20:01:05.649Z,58.73
2023-02-15T20:03:32.604Z,57.99
2023-02-15T20:06:00.545Z,58.51
2023-02-15T20:08:28.731Z,58.88
2023-02-15T20:10:59.388Z,58.76
2023-02-15T20:13:29.279Z,58.71
2023-02-15T20:15:56.148Z,58.57
2023-02-15T20:18:25.143Z,58.61
2023-02-15T20:20:59.050Z,58.17
2023-02-15T20:23:34.016Z,58.16
2023-02-15T20:26:23.078Z,58.77
2023-02-15T20:28:50.278Z,58.15
2023-02-15T20:31:20.671Z,58.67
2023-02-15T20:33:50.943Z,58.15
2023-02-15T20:36:21.996Z,57.75
2023-02-15T20:38:49.641Z,57.88
2023-02-15T20:41:37.643Z,57.74
2023-02-15T20:44:21.616Z,57.67
2023-02-15T20:46:50.226Z,57.59
2023-02-15T20:49:27.454Z,57.77
2023-02-15T20:51:58.594Z,57.55
2023-02-15T20:54:34.443Z,57.27
2023-02-15T20:57:27.172Z,57.37
2023-02-15T20:59:56.647Z,57.69
2023-02-15T21:02:29.860Z,58.21
2023-02-15T21:05:02.063Z,57.42
2023-02-15T21:07:30.528Z,57.57
2023-02-15T21:10:00.245Z,57.93
2023-02-15T21:12:36.665Z,58.02
2023-02-15T21:15:36.829Z,57.87
2023-02-15T21:18:09.871Z,58.14
2023-02-15T21:20:53.795Z,58.05
2023-02-15T21:23:28.984Z,57.77
2023-02-15T21:26:02.409Z,57.95
2023-02-15T21:28:35.030Z,58.54
2023-02-15T21:31:02.834Z,58.52
2023-02-15T21:33:44.393Z,58.57
2023-02-15T21:36:26.936Z,58.69
2023-02-15T21:42:11.900Z,58.89
2023-02-15T21:45:00.079Z,58.95
2023-02-15T21:47:53.746Z,58.82
2023-02-15T21:50:44.196Z,58.98
2023-02-15T21:53:17.635Z,58.73
2023-02-15T21:55:44.774Z,58.58
2023-02-15T21:58:29.120Z,58.28
2023-02-15T22:01:00.660Z,58.67
2023-02-15T22:03:38.202Z,58.63
2023-02-15T22:06:10.264Z,59.15
2023-02-15T22:08:37.832Z,59.33
2023-02-15T22:11:13.738Z,59.39
2023-02-15T22:13:43.005Z,59.45
2023-02-15T22:16:20.359Z,59.55
2023-02-15T22:18:48.334Z,59.57
2023-02-15T22:21:21.792Z,59.84
2023-02-15T22:23:48.656Z,59.58
2023-02-15T22:26:15.718Z,59.76
2023-02-15T22:28:43.885Z,59.73
2023-02-15T22:31:14.006Z,59.54
2023-02-15T22:33:44.839Z,59.71
2023-02-15T22:36:40.250Z,60.15
2023-02-15T22:39:07.234Z,59.79
2023-02-15T22:41:39.804Z,59.92
2023-02-15T22:44:07.329Z,60.64
2023-02-15T22:46:34.484Z,60.29
2023-02-15T22:49:01.280Z,60.45
2023-02-15T22:51:32.278Z,60.71
2023-02-15T22:53:59.124Z,61.03
2023-02-15T22:56:38.464Z,60.83
2023-02-15T22:59:11.792Z,60.89
2023-02-15T23:01:44.256Z,60.90
2023-02-15T23:04:19.327Z,60.84
2023-02-15T23:06:49.260Z,60.89
2023-02-15T23:09:20.904Z,60.69
2023-02-15T23:11:54.025Z,60.56
2023-02-15T23:14:39.236Z,60.71
2023-02-15T23:17:08.928Z,60.56
2023-02-15T23:19:42.908Z,60.23
2023-02-15T23:22:20.557Z,60.59
2023-02-15T23:24:55.118Z,60.53
2023-02-15T23:27:45.783Z,60.72
2023-02-15T23:30:14.290Z,60.54
2023-02-15T23:32:42.921Z,60.80
2023-02-15T23:35:18.782Z,60.84
2023-02-15T23:37:48.036Z,60.92
2023-02-15T23:40:34.845Z,60.98
2023-02-15T23:43:04.443Z,61.16
2023-02-15T23:45:38.614Z,61.42
2023-02-15T23:48:31.351Z,61.17
2023-02-15T23:50:59.178Z,60.98
2023-02-15T23:53:28.837Z,61.20
2023-02-15T23:55:58.383Z,61.16
2023-02-15T23:58:35.401Z,61.15
